createdAt,value
2023-02-23T00:02:07.898Z,101160.94
2023-02-23T00:07:05.623Z,101163.84
2023-02-23T00:12:07.012Z,101160.53
2023-02-23T00:17:13.529Z,101161.28
2023-02-23T00:22:14.735Z,101162.78
2023-02-23T00:27:19.643Z,101157.97
2023-02-23T00:32:19.315Z,101162.03
2023-02-23T00:37:16.428Z,101153.31
2023-02-23T00:42:13.162Z,101160.38
2023-02-23T00:47:09.846Z,101150.88
2023-02-23T00:52:07.190Z,101155.91
2023-02-23T00:57:03.988Z,101156.56
2023-02-23T01:02:00.914Z,101155.00
2023-02-23T01:06:57.840Z,101140.50
2023-02-23T01:12:00.946Z,101128.03
2023-02-23T01:16:57.800Z,101148.03
2023-02-23T01:21:54.553Z,101147.59
2023-02-23T01:26:51.303Z,101147.94
2023-02-23T01:31:50.509Z,101147.97
2023-02-23T01:36:47.867Z,101153.28
2023-02-23T01:41:45.015Z,101147.94
2023-02-23T01:46:44.526Z,101151.47
2023-02-23T01:51:47.845Z,101138.16
2023-02-23T01:56:48.659Z,101149.28
2023-02-23T02:01:47.654Z,101138.50
2023-02-23T02:06:48.570Z,101155.28
2023-02-23T02:11:53.730Z,101155.41
2023-02-23T02:17:03.556Z,101143.94
2023-02-23T02:22:15.925Z,101151.78
2023-02-23T02:27:18.644Z,101155.47
2023-02-23T02:32:33.807Z,101155.47
2023-02-23T02:37:56.073Z,101154.59
2023-02-23T02:42:59.373Z,101157.59
2023-02-23T02:48:03.019Z,101159.19
2023-02-23T02:53:05.646Z,101154.88
2023-02-23T02:58:12.565Z,101163.63
2023-02-23T03:03:30.262Z,101157.06
2023-02-23T03:08:49.348Z,101159.75
2023-02-23T03:14:10.945Z,101176.13
2023-02-23T03:19:29.730Z,101177.06
2023-02-23T03:24:50.699Z,101183.91
2023-02-23T03:30:10.863Z,101189.56
2023-02-23T03:35:28.580Z,101187.41
2023-02-23T03:40:46.453Z,101192.09
2023-02-23T03:46:05.123Z,101192.88
2023-02-23T03:51:23.821Z,101199.22
2023-02-23T03:56:41.840Z,101193.00
2023-02-23T04:01:57.652Z,101186.25
2023-02-23T04:07:14.430Z,101197.03
2023-02-23T04:12:32.918Z,101186.25
2023-02-23T04:17:30.711Z,101199.22
2023-02-23T04:22:28.598Z,101195.88
2023-02-23T04:27:25.401Z,101187.50
2023-02-23T04:32:24.461Z,101206.81
2023-02-23T04:37:22.002Z,101210.66
2023-02-23T04:42:19.220Z,101219.78
2023-02-23T04:47:17.710Z,101214.88
2023-02-23T04:52:14.519Z,101220.72
2023-02-23T04:57:11.936Z,101220.28
2023-02-23T05:02:08.735Z,101233.06
2023-02-23T05:07:05.487Z,101235.47
2023-02-23T05:12:02.101Z,101229.22
2023-02-23T05:16:59.423Z,101238.66
2023-02-23T05:21:56.038Z,101249.78
2023-02-23T05:26:53.297Z,101251.31
2023-02-23T05:31:50.350Z,101249.47
2023-02-23T05:36:47.804Z,101249.31
2023-02-23T05:41:47.638Z,101256.94
2023-02-23T05:46:45.591Z,101258.81
2023-02-23T05:51:42.703Z,101282.47
2023-02-23T05:56:41.170Z,101287.91
2023-02-23T06:01:40.539Z,101306.16
2023-02-23T06:06:42.926Z,101314.19
2023-02-23T06:11:40.432Z,101322.09
2023-02-23T06:16:37.630Z,101333.44
2023-02-23T06:21:34.866Z,101318.81
2023-02-23T06:26:33.936Z,101343.31
2023-02-23T06:31:36.350Z,101342.94
2023-02-23T06:36:33.395Z,101354.06
2023-02-23T06:41:30.831Z,101357.97
2023-02-23T06:46:28.216Z,101357.75
2023-02-23T06:51:29.471Z,101365.34
2023-02-23T06:56:31.072Z,101361.78
2023-02-23T07:01:34.429Z,101359.38
2023-02-23T07:06:37.604Z,101360.75
2023-02-23T07:11:34.553Z,101356.69
2023-02-23T07:16:31.624Z,101371.97
2023-02-23T07:21:31.441Z,101370.25
2023-02-23T07:26:28.974Z,101374.59
2023-02-23T07:31:26.137Z,101384.16
2023-02-23T07:36:26.616Z,101371.44
2023-02-23T07:41:23.347Z,101388.72
2023-02-23T07:46:21.272Z,101389.75
2023-02-23T07:51:18.679Z,101379.84
2023-02-23T07:56:18.521Z,101400.06
2023-02-23T08:01:15.524Z,101400.50
2023-02-23T08:06:12.931Z,101403.81
2023-02-23T08:11:10.346Z,101399.84
2023-02-23T08:16:07.452Z,101405.59
2023-02-23T08:21:04.824Z,101411.56
2023-02-23T08:26:05.410Z,101413.38
2023-02-23T08:31:02.345Z,101421.38
2023-02-23T08:36:02.344Z,101424.19
2023-02-23T08:41:00.387Z,101406.56
2023-02-23T08:46:29.661Z,101428.97
2023-02-23T08:51:27.489Z,101442.41
2023-02-23T08:56:25.167Z,101437.09
2023-02-23T09:01:22.392Z,101417.34
2023-02-23T09:06:20.777Z,101435.47
2023-02-23T09:11:18.385Z,101443.91
2023-02-23T09:16:16.221Z,101437.59
2023-02-23T09:21:18.518Z,101447.09
2023-02-23T09:26:17.067Z,101441.16
2023-02-23T09:31:18.546Z,101442.69
2023-02-23T09:36:16.644Z,101443.84
2023-02-23T09:41:33.193Z,101420.41
2023-02-23T09:46:36.290Z,101434.88
2023-02-23T09:51:37.376Z,101440.06
2023-02-23T09:56:37.067Z,101443.88
2023-02-23T10:01:45.417Z,101442.59
2023-02-23T10:06:45.658Z,101437.19
2023-02-23T10:11:49.356Z,101438.63
2023-02-23T10:16:53.746Z,101423.72
2023-02-23T10:21:54.454Z,101428.66
2023-02-23T10:27:02.993Z,101424.97
2023-02-23T10:32:03.006Z,101411.31
2023-02-23T10:37:01.112Z,101418.34
2023-02-23T10:41:59.179Z,101410.22
2023-02-23T10:46:58.890Z,101419.50
2023-02-23T10:52:52.959Z,101416.53
2023-02-23T10:57:51.955Z,101400.66
2023-02-23T11:02:48.771Z,101394.81
2023-02-23T11:07:46.213Z,101387.00
2023-02-23T11:12:43.178Z,101379.50
2023-02-23T11:17:40.613Z,101383.97
2023-02-23T11:22:37.599Z,101369.72
2023-02-23T11:27:37.675Z,101388.06
2023-02-23T11:32:42.568Z,101381.88
2023-02-23T11:37:41.262Z,101377.06
2023-02-23T11:42:51.860Z,101387.03
2023-02-23T11:47:49.909Z,101386.75
2023-02-23T11:52:56.063Z,101382.09
2023-02-23T11:57:55.143Z,101403.13
2023-02-23T12:02:57.715Z,101398.56
2023-02-23T12:07:59.779Z,101402.78
2023-02-23T12:13:02.269Z,101384.38
2023-02-23T12:18:03.002Z,101403.41
2023-02-23T12:23:05.060Z,101393.78
2023-02-23T12:28:18.161Z,101405.06
2023-02-23T12:33:21.197Z,101397.28
2023-02-23T12:38:27.558Z,101403.88
2023-02-23T12:43:27.060Z,101401.19
2023-02-23T12:48:32.657Z,101405.84
2023-02-23T12:53:32.105Z,101400.81
2023-02-23T12:58:46.428Z,101414.19
2023-02-23T13:04:07.299Z,101412.13
2023-02-23T13:09:13.639Z,101402.03
2023-02-23T13:14:16.038Z,101400.00
2023-02-23T13:19:18.041Z,101411.22
2023-02-23T13:24:18.843Z,101421.13
2023-02-23T13:29:24.803Z,101416.06
2023-02-23T13:34:24.266Z,101419.25
2023-02-23T13:39:45.563Z,101417.25
2023-02-23T13:44:46.676Z,101421.66
2023-02-23T13:49:46.911Z,101441.81
2023-02-23T13:54:52.416Z,101432.03
2023-02-23T13:59:49.882Z,101435.16
2023-02-23T14:04:47.119Z,101436.72
2023-02-23T14:09:47.505Z,101440.22
2023-02-23T14:14:46.266Z,101434.59
2023-02-23T14:20:06.487Z,101442.63
2023-02-23T14:25:21.943Z,101442.66
2023-02-23T14:30:24.920Z,101434.28
2023-02-23T14:35:42.318Z,101435.13
2023-02-23T14:40:40.084Z,101433.63
2023-02-23T14:45:38.747Z,101434.53
2023-02-23T14:50:36.986Z,101430.97
2023-02-23T14:55:36.135Z,101435.97
2023-02-23T15:00:41.429Z,101443.31
2023-02-23T15:05:42.253Z,101427.28
2023-02-23T15:10:41.231Z,101427.47
2023-02-23T15:15:44.841Z,101432.47
2023-02-23T15:20:43.541Z,101435.00
2023-02-23T15:25:40.651Z,101453.41
2023-02-23T15:30:45.140Z,101449.47
2023-02-23T15:35:44.577Z,101456.44
2023-02-23T15:40:41.592Z,101460.03
2023-02-23T15:45:42.137Z,101466.09
2023-02-23T15:50:42.124Z,101478.59
2023-02-23T15:55:41.553Z,101481.03
2023-02-23T16:00:40.982Z,101482.91
2023-02-23T16:05:46.522Z,101486.97
2023-02-23T16:10:47.296Z,101494.00
2023-02-23T16:15:44.190Z,101497.28
2023-02-23T16:20:42.732Z,101502.69
2023-02-23T16:25:43.003Z,101510.00
2023-02-23T16:30:43.748Z,101517.31
2023-02-23T16:35:44.815Z,101500.53
2023-02-23T16:40:42.101Z,101520.50
2023-02-23T16:45:40.449Z,101532.53
2023-02-23T16:50:40.030Z,101531.44
2023-02-23T16:55:39.817Z,101531.38
2023-02-23T17:00:36.901Z,101529.88
2023-02-23T17:05:33.864Z,101539.56
2023-02-23T17:10:33.100Z,101535.94
2023-02-23T17:15:31.184Z,101544.94
2023-02-23T17:20:32.140Z,101542.34
2023-02-23T17:25:29.405Z,101543.34
2023-02-23T17:30:27.675Z,101550.34
2023-02-23T17:35:25.276Z,101554.06
2023-02-23T17:40:27.961Z,101561.53
2023-02-23T17:45:24.814Z,101563.50
2023-02-23T17:50:22.724Z,101564.25
2023-02-23T17:55:22.537Z,101555.63
2023-02-23T18:00:21.553Z,101565.63
2023-02-23T18:05:20.755Z,101561.28
2023-02-23T18:10:18.264Z,101560.22
2023-02-23T18:15:20.149Z,101561.47
2023-02-23T18:20:17.252Z,101562.44
2023-02-23T18:25:21.388Z,101548.97
2023-02-23T18:30:18.268Z,101579.44
2023-02-23T18:35:14.978Z,101573.13
2023-02-23T18:40:20.686Z,101575.84
2023-02-23T18:45:18.221Z,101577.34
2023-02-23T18:50:18.637Z,101579.47
2023-02-23T18:55:15.573Z,101578.91
2023-02-23T19:00:13.470Z,101588.75
2023-02-23T19:05:12.412Z,101589.22
2023-02-23T19:10:11.946Z,101594.00
2023-02-23T19:15:09.491Z,101599.03
2023-02-23T19:20:12.679Z,101599.66
2023-02-23T19:25:14.106Z,101602.34
2023-02-23T19:30:11.932Z,101595.34
2023-02-23T19:35:10.255Z,101603.03
2023-02-23T19:40:08.543Z,101602.16
2023-02-23T19:45:06.742Z,101613.03
2023-02-23T19:50:04.151Z,101613.63
2023-02-23T19:55:00.840Z,101613.03
2023-02-23T19:59:57.441Z,101611.75
2023-02-23T20:04:54.907Z,101611.41
2023-02-23T20:09:53.263Z,101601.03
2023-02-23T20:14:50.037Z,101606.19
2023-02-23T20:19:46.572Z,101594.13
2023-02-23T20:24:43.830Z,101594.19
2023-02-23T20:29:40.662Z,101581.06
2023-02-23T20:34:38.582Z,101583.59
2023-02-23T20:39:35.779Z,101587.50
2023-02-23T20:44:38.643Z,101587.81
2023-02-23T20:49:35.607Z,101588.03
2023-02-23T20:54:32.777Z,101578.94
2023-02-23T20:59:29.381Z,101581.88
2023-02-23T21:04:27.919Z,101580.13
2023-02-23T21:09:24.614Z,101576.59
2023-02-23T21:14:21.245Z,101576.78
2023-02-23T21:19:19.556Z,101573.03
2023-02-23T21:24:17.946Z,101570.38
2023-02-23T21:29:16.287Z,101578.91
2023-02-23T21:34:15.822Z,101572.78
2023-02-23T21:39:12.862Z,101579.88
2023-02-23T21:44:11.326Z,101580.53
2023-02-23T21:49:10.358Z,101561.97
2023-02-23T21:54:07.024Z,101570.16
2023-02-23T21:59:07.511Z,101572.75
2023-02-23T22:04:05.722Z,101572.81
2023-02-23T22:09:03.841Z,101570.94
2023-02-23T22:14:00.662Z,101565.13
2023-02-23T22:18:57.700Z,101565.00
2023-02-23T22:23:55.397Z,101559.72
2023-02-23T22:28:52.091Z,101554.81
2023-02-23T22:33:49.611Z,101553.63
2023-02-23T22:38:49.292Z,101552.66
2023-02-23T22:43:46.838Z,101547.63
2023-02-23T22:48:46.291Z,101543.97
2023-02-23T22:53:43.433Z,101538.72
2023-02-23T22:58:41.692Z,101538.56
2023-02-23T23:03:40.486Z,101528.97
2023-02-23T23:08:38.188Z,101524.56
2023-02-23T23:13:36.411Z,101518.81
2023-02-23T23:18:33.178Z,101513.28
2023-02-23T23:23:34.883Z,101508.06
2023-02-23T23:28:39.423Z,101506.56
2023-02-23T23:33:36.794Z,101497.94
2023-02-23T23:38:37.906Z,101498.66
2023-02-23T23:43:36.411Z,101492.13
2023-02-23T23:48:38.538Z,101484.13
2023-02-23T23:53:36.014Z,101486.63
2023-02-23T23:58:38.005Z,101475.25
